Race Coverage Navigation

TS # 1 / Borrego Springs, CA  2019

 


TS STATS
TS Distance 88.4 
Total Distance 88.4 
Miles To Go 3013.28 
TS Climbing 57 
Total Climbing
TS  Elevation
TS  Net Elevation 92 
Map Filename Open Map 
Directions Filename  
Latitude 33.23 
Longitude -116.76 
Google Map  TimeStation Map 


TS Arrival Data
Arr Ord  #/Name Arrival DT TS Dst Avg This TS Avg Overall
 1 R111 - Jennifer Orr  06/11/2019 18:39 88.4  26.26  26.26 
 2 R404 - Team Viasat - Carlsbad  06/11/2019 19:08 88.4  21.39  21.39 
 3 R403 - Team Viasat-Denver  06/11/2019 19:26 88.4  20.02  20.02 
 4 R401 - San Diego Sports Medicine/Zoca  06/11/2019 19:50 88.4  18.48  18.48 
 5 R205 - Team OB2  06/11/2019 20:03 88.4  17.98  17.98 
 6 R400 - HTX Velo Femme  06/11/2019 20:17 88.4  16.95  16.95 
 7 R200 - EY Legacy Builders 2019  06/11/2019 20:17 88.4  17.39  17.39 
 8 R201 - IN OUR PRIME  06/11/2019 20:20 88.4  17.17  17.17 
 9 R202 - Laureus Alegra  06/11/2019 20:23 88.4  16.95  16.95 
 10 R51 - Fabio Silvestri  06/11/2019 20:24 88.4  18.48  18.48 
 11 R402 - SUWOS  06/11/2019 20:25 88.4  16.42  16.42 
 12 R203 - Mike 'n' Jay Giretto con Amici  06/11/2019 20:34 88.4  16.32  16.32 
 13 R124 - Andres Rodriguez  06/11/2019 20:52 88.4  15.93  15.93 
 14 R122 - Kirk Gentle  06/11/2019 21:00 88.4  15.65  15.65 
 15 R115 - Kym Louie  06/11/2019 21:00 88.4  15.42  15.42 
 16 R121 - Ironmae (Rosecler Costa)  06/11/2019 21:06 88.4  15.07  15.07 
 17 R209 - Workhorses  06/11/2019 21:07 88.4  14.65  14.65 
 18 377 - Christoph Strasser  06/11/2019 21:09 88.4  19.64  19.64 
 19 279 - Marko Baloh  06/11/2019 21:10 88.4  19.5  19.5 
 20 442 - Joe Barr  06/11/2019 21:10 88.4  19.01  19.01 
 21 R120 - Team Next Step (Peter Pedersen)  06/11/2019 21:13 88.4  15.11  15.11 
 22 617 - SOLO.kiwi (Craig Harper)  06/11/2019 21:13 88.4  17.74  17.74 
 23 623 - Ultra Paka Racing Team (Daniel Polman)  06/11/2019 21:13 88.4  17.45  17.45 
 24 R106 - Damaceleste.com (Valentina Tanzi)  06/11/2019 21:14 88.4  14.94  14.94 
 25 594 - Mauerhofer Thomas  06/11/2019 21:17 88.4  18.04  18.04 
 26 R108 - Eric C Pearce  06/11/2019 21:19 88.4  15.15  15.15 
 27 367 - Daniela Genovesi  06/11/2019 21:20 88.4  16.95  16.95 
 28 609 - Jakob Olsen  06/11/2019 21:23 88.4  17.56  17.56 
 29 612 - Markus K. Brandl  06/11/2019 21:25 88.4  17.28  17.28 
 30 621 - Themsen Ultracycling (Jacob Themsen)  06/11/2019 21:26 88.4  16.84  16.84 
 31 R116 - Philippe May  06/11/2019 21:28 88.4  14.57  14.57 
 32 529 - Isa Pulver  06/11/2019 21:31 88.4  16.27  16.27 
 33 R105 - 2nd Chance Racing (Craig Johnson)  06/11/2019 21:31 88.4  14.69  14.69 
 34 349 - Mark Pattinson  06/11/2019 21:33 88.4  17.8  17.8 
 35 620 - Team Jefferson (Allan Jefferson)  06/11/2019 21:33 88.4  16.52  16.52 
 36 R207 - We Might Make It!  06/11/2019 21:34 88.4  13.67  13.67 
 37 622 - Thomas Odom-Team Kyle Pease Foundation  06/11/2019 21:34 88.4  16.37  16.37 
 38 R103 - Chris Davies  06/11/2019 21:36 88.4  14.57  14.57 
 39 288 - Dave Haase  06/11/2019 21:44 88.4  17.28  17.28 
 40 R110 - James Golding  06/11/2019 21:45 88.4  14.07  14.07 
 41 R104 - Team everve Christian (Christian Beichel)  06/11/2019 21:48 88.4  14.07  14.07 
 42 615 - Philipp Amhof  06/11/2019 21:48 88.4  15.93  15.93 
 43 416 - Leah Goldstein  06/11/2019 21:51 88.4  15.37  15.37 
 44 618 - GREGORY ROBINSON  06/11/2019 21:54 88.4  15.55  15.55 
 45 604 - Chieko Ozawa  06/11/2019 21:56 88.4  15.03  15.03 
 46 603 - Alan Bradley  06/11/2019 21:56 88.4  15.93  15.93 
 47 607 - Sabine Bird (Team Bean)  06/11/2019 22:03 88.4  14.69  14.69 
 48 161 - Seana Hogan  06/11/2019 22:04 88.4  14.9  14.9 
 49 559 - Team Martin RAAM 2019 (Martin Bergmeister)  06/11/2019 22:04 88.4  15.69  15.69 
 50 329 - Peter Oyler  06/11/2019 22:07 88.4  16.02  16.02 
 51 608 - Elin Starup  06/11/2019 22:08 88.4  14.45  14.45 
 52 R84 - James Jason Ingels  06/11/2019 22:14 88.4  13.33  13.33 
 53 399 - Valerio Zamboni  06/11/2019 22:20 88.4  15.33  15.33 
 54 R117 - ROGIE (Roger Foote)  06/11/2019 22:20 88.4  12.72  12.72 
 55 R119 - Team BlueLine (Martha Hall)  06/11/2019 22:22 88.4  12.42  12.42 
 56 568 - Alexandra Meixner  06/11/2019 22:24 88.4  13.96  13.96 
 57 R113 - Kerry Dragon  06/11/2019 22:26 88.4  12.63  12.63 
 58 610 - Kabir Rachure  06/11/2019 22:27 88.4  14.45  14.45 
 59 539 - Kari Rouvinen  06/11/2019 22:29 88.4  14.65  14.65 
 60 R114 - Krishna Prakash  06/11/2019 22:31 88.4  12.45  12.45 
 61 510 - John C. Tarlton  06/11/2019 22:32 88.4  14.61  14.61 
 62 614 - Per Nielsen  06/11/2019 22:33 88.4  14.07  14.07 
 63 527 - TALABARDON (Herve Talabardon)  06/11/2019 22:35 88.4  14.45  14.45 
 64 R87 - Spoke Life Cycles / TRD (Lucas Spencer)  06/11/2019 22:40 88.4  12.48  12.48 
 65 611 - Marcelo Soares " MIXIRICA "  06/11/2019 22:55 88.4  13.39  13.39 
 66 491 - BOURREAU JACQUES  06/11/2019 23:04 88.4  13.46  13.46 
 67 R112 - John Hoopingarner  06/11/2019 23:05 88.4  11.58  11.58 
 68 605 - Christian Echavarria  06/11/2019 23:13 88.4  12.91  12.91 
 69 563 - Team Nico Ultracycling - In Fight against Cancer   06/11/2019 23:19 88.4  12.81  12.81 
 70 411 - Geoff Brunner  06/11/2019 23:22 88.4  12.97  12.97 
 71 R102 - Build-A-Bike (Adam Kidd)  06/11/2019 23:23 88.4  11.29  11.29 
 72 424 - Team i RON man Veterans supporting Veterans  06/11/2019 23:37 88.4  12.48  12.48 
 73 R101 - Bobby Klatt  06/11/2019 23:38 88.4  10.96  10.96 
 74 T401 - Data Techniques powered by Networks Centre  06/15/2019 19:12 88.4  22.01  22.01 
 75 T201 - EAT WELL  06/15/2019 19:21 88.4  20.4  20.4 
 76 T404 - Gentlemen of speed  06/15/2019 19:22 88.4  21.39  21.39 
 77 T411 - team alpha - tischlerei groemmer  06/15/2019 19:23 88.4  21.92  21.92 
 78 T800 - Backstedt Racing Project 14  06/15/2019 19:28 88.4  22.19  22.19 
 79 T407 - Julian Becker   06/15/2019 19:30 88.4  20.96  20.96 
 80 T207 - Team Life Time  06/15/2019 19:49 88.4  18.81  18.81 
 81 T202 - Integra Medical - BAA Racing  06/15/2019 19:50 88.4  18.42  18.42 
 82 T200 - AIR RELAX GoPro TEAM BRASIL  06/15/2019 19:51 88.4  18.23  18.23 
 83 T412 - Team Aspect  06/15/2019 19:53 88.4  19.57  19.57 
 84 T408 - Radeln-fuer-Kinder (Cycling-for-Kids)  06/15/2019 19:53 88.4  19.29  19.29 
 85 T403 - EKJ Denmark  06/15/2019 19:55 88.4  18.81  18.81 
 86 T206 - Project Linear Acceleration  06/15/2019 19:56 88.4  18.29  18.29 
 87 T204 - Lucan CRC  06/15/2019 20:04 88.4  17.68  17.68 
 88 T416 - Team Rotary Raams Polio  06/15/2019 20:10 88.4  18.68  18.68 
 89 T804 - Team FSHD Skyland Trail  06/15/2019 20:10 88.4  19.15  19.15 
 90 T807 - Team ZOE International  06/15/2019 20:11 88.4  19.29  19.29 
 91 T805 - Team Oceanside  06/15/2019 20:12 88.4  19.08  19.08 
 92 T205 - Prevent Breast Cancer powered by Endomag  06/15/2019 20:13 88.4  17.22  17.22 
 93 T405 - High Rollers  06/15/2019 20:15 88.4  17.68  17.68 
 94 T406 - Operation Walk Midwest  06/15/2019 20:16 88.4  17.68  17.68 
 95 T802 - Scorchers  06/15/2019 20:17 88.4  18.55  18.55 
 96 T400 - Cantastic4  06/15/2019 20:17 88.4  17.28  17.28 
 97 T410 - Soap-Aid  06/15/2019 20:21 88.4  17.62  17.62 
 98 T808 - Antonia's Friends 2019  06/15/2019 20:25 88.4  18.42  18.42 
 99 T208 - Team Machine  06/15/2019 20:29 88.4  16.52  16.52 
 100 T415 - TEAM FIRE VELO 935  06/15/2019 20:33 88.4  17.22  17.22 
 101 T413 - TEAM BRASIL - SKIPPER  06/15/2019 20:33 88.4  17.11  17.11 
 102 T418 - The Opportunists  06/15/2019 20:35 88.4  17.28  17.28 
 103 T417 - Team4RAAM 2019 powered by TGW Living Logistics  06/15/2019 20:42 88.4  16.84  16.84 
 104 T203 - JPsDuo  06/15/2019 20:49 88.4  15.33  15.33 
 105 T414 - Brazil Nuts  06/15/2019 20:51 88.4  16.22  16.22 
 106 T806 - Team SuperMarrow  06/15/2019 20:56 88.4  16.52  16.52 
 107 T402 - EA/WFP RAAM Team  06/15/2019 21:03 88.4  15.11  15.11 
 108 T801 - Mind Over Matter  06/15/2019 21:21 88.4  15.11  15.11 
 109 T803 - Team EndoPark  06/15/2019 21:25 88.4  15.03  15.03 
 110 T210 - Bike Wine Team  06/15/2019 21:37 88.4  13.67  13.67 
 111 T409 - Serpentine Golden Girls  06/15/2019 21:44 88.4  13.78  13.78